Madison, Arkansas
Current Conditions -  °F | °C
As of 7:53 PM on Sunday 25 Jan 2015 (Local Time) from KAWM Reporting Station
Overcast Overcast  
Wind Chill: 38°   Ceiling: 3900
Heat Index: 44°   Visibility: 10mi
Dew Point: 37°   Wind: 13mph
Humidity: 76%   Direction: 300°WNW
Pressure: 29.88"   Gusts: 21mph
Location:  35.01°N, 90.72°W
Report Text: KAWM 260153Z AUTO 30011G18KT 10SM OVC039 07/03 A2988 RMK AO2 SLP117 T00670028
Loading
Personal Weather Stations






























Interactive Weather Map New forecast layout! Learn more

10-Day Weather Forecast

Advertisements
Track Severe Weather on mobile